Time;durP1;ratioP1;P1;durP2;ratioP2;P2;SDS_P1;SDS_P2;PMS_P1;PMS_P2;Temp;Humidity;BMP_temperature;BMP_pressure;BME280_temperature;BME280_humidity;BME280_pressure;Samples;Min_cycle;Max_cycle;Signal;HPM_P1;HPM_P2
2023/06/01 00:03:54;;;;;;;5.00;2.58;;;15.10;1.00;;;;;;10080741;29;20236;-80
2023/06/01 00:09:16;;;;;;;6.15;2.40;;;15.00;1.00;;;;;;10053799;29;20386;-80
2023/06/01 00:14:37;;;;;;;5.18;2.50;;;15.00;1.00;;;;;;10081546;29;20259;-79
2023/06/01 00:20:05;;;;;;;8.98;2.47;;;14.90;1.00;;;;;;10048886;29;20271;-79
2023/06/01 00:25:27;;;;;;;3.47;2.53;;;14.70;1.00;;;;;;10067428;29;20502;-79
2023/06/01 00:30:48;;;;;;;3.75;2.63;;;14.60;64.90;;;;;;10078455;29;20208;-79
2023/06/01 00:36:09;;;;;;;5.95;2.50;;;14.50;99.90;;;;;;10041712;29;20376;-79
2023/06/01 00:41:32;;;;;;;6.85;2.45;;;14.50;99.90;;;;;;10063580;29;20241;-79
2023/06/01 00:46:54;;;;;;;5.57;2.67;;;14.50;1.00;;;;;;10048422;29;20300;-79
2023/06/01 00:52:15;;;;;;;4.45;2.28;;;14.50;99.90;;;;;;10074247;29;20510;-79
2023/06/01 00:57:38;;;;;;;6.40;3.17;;;14.40;1.00;;;;;;10066253;29;20215;-79
2023/06/01 01:03:06;;;;;;;6.78;2.67;;;14.30;1.00;;;;;;10019026;29;20242;-80
2023/06/01 01:08:36;;;;;;;5.82;2.60;;;14.30;1.00;;;;;;10029497;29;20206;-80
2023/06/01 01:14:23;;;;;;;8.27;3.05;;;14.30;1.00;;;;;;10042060;29;20233;-80
2023/06/01 01:20:08;;;;;;;5.28;3.03;;;14.30;1.00;;;;;;10026825;29;20244;-79
2023/06/01 01:26:07;;;;;;;9.65;3.30;;;14.20;1.00;;;;;;10041248;29;20206;-79
2023/06/01 01:31:30;;;;;;;5.43;3.10;;;14.20;5.10;;;;;;10035789;29;20284;-79
2023/06/01 01:36:52;;;;;;;7.53;3.13;;;14.20;99.90;;;;;;10065409;29;20201;-80
2023/06/01 01:42:14;;;;;;;6.20;3.17;;;14.10;99.90;;;;;;10039976;29;20237;-79
2023/06/01 01:48:03;;;;;;;5.65;2.92;;;14.00;1.00;;;;;;10044462;29;20212;-79
2023/06/01 01:53:26;;;;;;;7.22;2.97;;;14.00;93.60;;;;;;10064474;29;20211;-79
2023/06/01 01:58:48;;;;;;;8.52;3.17;;;14.00;99.90;;;;;;10061621;29;20206;-79
2023/06/01 02:04:10;;;;;;;8.45;3.55;;;13.90;99.90;;;;;;10026650;29;20278;-79
2023/06/01 02:09:32;;;;;;;5.68;3.45;;;13.90;99.90;;;;;;10025826;29;20213;-79
2023/06/01 02:14:53;;;;;;;9.65;4.13;;;13.80;1.00;;;;;;10039788;29;20221;-79
2023/06/01 02:20:15;;;;;;;8.68;4.40;;;13.70;99.90;;;;;;10042430;29;20242;-79
2023/06/01 02:25:36;;;;;;;9.55;4.65;;;13.70;99.90;;;;;;10045987;29;20204;-79
2023/06/01 02:30:57;;;;;;;5.88;3.88;;;13.60;1.00;;;;;;10036727;29;20236;-78
2023/06/01 02:36:19;;;;;;;7.50;4.10;;;13.60;1.00;;;;;;10033161;29;20257;-79
2023/06/01 02:41:40;;;;;;;7.53;3.63;;;13.60;1.00;;;;;;10068928;29;20241;-79
2023/06/01 02:47:02;;;;;;;7.68;3.33;;;13.60;19.50;;;;;;10066166;29;20216;-78
2023/06/01 02:52:24;;;;;;;8.70;3.97;;;13.60;99.90;;;;;;10034030;29;20214;-79
2023/06/01 02:57:45;;;;;;;10.18;4.00;;;13.50;1.00;;;;;;10064112;29;20239;-79
2023/06/01 03:03:07;;;;;;;7.03;3.78;;;13.50;99.90;;;;;;10032010;29;20289;-79
2023/06/01 03:08:28;;;;;;;12.30;4.70;;;13.60;99.90;;;;;;10044175;29;20217;-79
2023/06/01 03:13:50;;;;;;;8.35;4.13;;;13.60;99.90;;;;;;10031500;29;20224;-79
2023/06/01 03:19:11;;;;;;;8.02;4.22;;;13.70;1.00;;;;;;10034475;29;20212;-79
2023/06/01 03:24:32;;;;;;;8.55;3.63;;;13.70;1.00;;;;;;10030889;29;20242;-79
2023/06/01 03:29:56;;;;;;;10.63;4.47;;;13.70;1.00;;;;;;10020575;29;20231;-79
2023/06/01 03:35:17;;;;;;;13.38;4.55;;;13.70;99.90;;;;;;10030369;29;20318;-78
2023/06/01 03:40:39;;;;;;;10.50;4.40;;;13.70;99.90;;;;;;10056159;29;20208;-79
2023/06/01 03:46:00;;;;;;;9.98;4.32;;;13.70;1.00;;;;;;10056888;29;20275;-78
2023/06/01 03:57:57;;;;;;;13.32;5.00;;;13.70;99.90;;;;;;10014353;29;20234;-78
2023/06/01 04:03:21;;;;;;;13.65;5.18;;;13.70;99.90;;;;;;9969245;29;20287;-79
2023/06/01 04:08:48;;;;;;;8.32;4.57;;;13.70;1.00;;;;;;9984229;29;20252;-78
2023/06/01 04:14:09;;;;;;;14.63;4.85;;;13.70;1.00;;;;;;9951448;29;20213;-79
2023/06/01 04:19:30;;;;;;;8.00;3.97;;;13.70;1.00;;;;;;9963915;29;20226;-79
2023/06/01 04:24:57;;;;;;;7.97;3.88;;;13.80;1.00;;;;;;9955685;29;20236;-79
2023/06/01 04:30:19;;;;;;;8.43;3.90;;;13.80;99.90;;;;;;10028704;29;20209;-79
2023/06/01 04:35:43;;;;;;;9.05;4.35;;;13.80;1.00;;;;;;10028264;29;20212;-79
2023/06/01 04:41:05;;;;;;;7.65;4.05;;;13.90;99.90;;;;;;10030808;29;20226;-80
2023/06/01 04:46:27;;;;;;;10.93;4.68;;;14.00;99.90;;;;;;10027564;29;20385;-79
2023/06/01 04:51:52;;;;;;;10.18;3.72;;;14.10;99.90;;;;;;10063284;29;20578;-80
2023/06/01 04:57:14;;;;;;;9.13;3.85;;;14.20;97.10;;;;;;10079295;29;20293;-79
2023/06/01 05:02:37;;;;;;;11.07;4.15;;;14.30;1.00;;;;;;10042291;29;20233;-79
2023/06/01 05:07:59;;;;;;;13.52;3.63;;;14.40;99.90;;;;;;10027503;29;20253;-79
2023/06/01 05:13:21;;;;;;;12.50;3.42;;;14.50;99.90;;;;;;10028644;29;20229;-79
2023/06/01 05:18:42;;;;;;;11.48;3.65;;;14.70;99.90;;;;;;10040777;29;20238;-79
2023/06/01 05:24:03;;;;;;;6.30;3.05;;;14.90;1.00;;;;;;10027152;29;20249;-79
2023/06/01 05:29:25;;;;;;;8.18;3.60;;;15.00;99.90;;;;;;10027321;29;20527;-80
2023/06/01 05:34:47;;;;;;;9.32;3.25;;;15.10;1.00;;;;;;10042534;29;20209;-80
2023/06/01 05:40:09;;;;;;;10.90;3.67;;;15.20;1.00;;;;;;10065999;29;20210;-79
2023/06/01 05:45:32;;;;;;;9.52;3.95;;;15.30;1.00;;;;;;10039208;29;20245;-79
2023/06/01 05:50:53;;;;;;;14.45;3.58;;;15.50;99.90;;;;;;10028664;29;20209;-80
2023/06/01 05:56:16;;;;;;;9.95;3.20;;;15.60;1.00;;;;;;10056483;29;20225;-80
2023/06/01 06:01:37;;;;;;;26.10;4.25;;;15.90;1.00;;;;;;10020954;29;20224;-80
2023/06/01 06:06:58;;;;;;;11.40;2.80;;;16.00;1.00;;;;;;10046595;29;20297;-79
2023/06/01 06:12:20;;;;;;;8.13;3.15;;;16.30;1.00;;;;;;10046771;29;20210;-80
2023/06/01 06:17:42;;;;;;;9.18;3.28;;;16.40;1.00;;;;;;10035972;29;20218;-80
2023/06/01 06:23:03;;;;;;;14.88;3.13;;;16.60;1.00;;;;;;10046406;29;20252;-80
2023/06/01 06:28:26;;;;;;;5.20;2.55;;;16.90;28.80;;;;;;10050410;29;20217;-81
2023/06/01 06:33:48;;;;;;;8.23;3.75;;;17.30;1.00;;;;;;10032962;29;20404;-80
2023/06/01 06:39:10;;;;;;;8.63;2.67;;;;;;;;;;10036216;29;20203;-80
2023/06/01 06:44:32;;;;;;;161.85;10.65;;;;;;;;;;10059013;29;20525;-80
2023/06/01 06:49:54;;;;;;;7.88;2.85;;;18.80;1.00;;;;;;10031479;29;20230;-79
2023/06/01 06:55:15;;;;;;;20.20;2.58;;;;;;;;;;10067390;29;20394;-80
2023/06/01 07:00:39;;;;;;;10.95;2.83;;;;;;;;;;10034327;29;20501;-80
2023/06/01 07:06:01;;;;;;;9.88;2.10;;;20.00;1.00;;;;;;10031196;29;20552;-80
2023/06/01 07:11:23;;;;;;;6.88;2.28;;;20.30;1.00;;;;;;10043949;29;20388;-80
2023/06/01 07:16:44;;;;;;;7.65;3.25;;;20.60;99.90;;;;;;10030295;29;20259;-80
2023/06/01 07:22:06;;;;;;;17.77;2.65;;;20.80;99.90;;;;;;10043769;29;20245;-81
2023/06/01 07:27:28;;;;;;;6.10;2.63;;;21.10;99.90;;;;;;10029580;29;20238;-79
2023/06/01 07:32:49;;;;;;;12.02;2.22;;;21.40;99.90;;;;;;10066403;29;20223;-79
2023/06/01 07:38:11;;;;;;;9.63;2.45;;;21.80;99.90;;;;;;10057395;29;20241;-80
2023/06/01 07:43:36;;;;;;;12.55;1.98;;;21.90;99.90;;;;;;10065896;29;20238;-78
2023/06/01 07:48:58;;;;;;;7.03;2.95;;;22.10;99.90;;;;;;10064427;29;20537;-78
2023/06/01 07:54:19;;;;;;;12.07;2.60;;;22.20;99.90;;;;;;10070476;29;20401;-84
2023/06/01 07:59:40;;;;;;;6.97;2.42;;;22.40;99.90;;;;;;10062719;29;20282;-80
2023/06/01 08:05:02;;;;;;;41.17;4.78;;;22.40;99.90;;;;;;10041515;29;20339;-80
2023/06/01 08:10:23;;;;;;;6.18;2.10;;;22.50;99.90;;;;;;10049690;29;20207;-78
2023/06/01 08:15:48;;;;;;;13.05;3.33;;;22.60;99.90;;;;;;10037830;29;20203;-78
2023/06/01 08:21:09;;;;;;;9.55;2.67;;;22.80;99.90;;;;;;10072668;29;20238;-78
2023/06/01 08:26:30;;;;;;;8.45;2.30;;;22.90;99.90;;;;;;10108006;29;20237;-77
2023/06/01 08:31:52;;;;;;;8.13;2.30;;;23.00;99.90;;;;;;10058532;29;20214;-78
2023/06/01 08:37:14;;;;;;;8.68;2.35;;;22.90;99.90;;;;;;10042137;29;20190;-79
2023/06/01 08:43:00;;;;;;;8.18;2.25;;;22.90;99.90;;;;;;10058651;29;20238;-80
2023/06/01 08:48:22;;;;;;;5.55;2.70;;;22.70;99.90;;;;;;10074491;29;20211;-79
2023/06/01 08:53:48;;;;;;;22.83;3.35;;;23.20;99.90;;;;;;10057566;29;20669;-78
2023/06/01 08:59:13;;;;;;;11.20;3.47;;;23.50;99.90;;;;;;10071844;29;20207;-79
2023/06/01 09:04:38;;;;;;;9.10;2.60;;;23.30;99.90;;;;;;10056933;29;20497;-79
2023/06/01 09:09:59;;;;;;;22.73;3.47;;;22.90;99.90;;;;;;10049330;29;20262;-79
2023/06/01 09:15:22;;;;;;;7.32;2.45;;;22.70;99.90;;;;;;10072048;29;20221;-79
2023/06/01 09:20:44;;;;;;;7.25;2.80;;;23.10;99.90;;;;;;10069436;29;20280;-81
2023/06/01 09:26:09;;;;;;;10.93;2.38;;;23.20;99.90;;;;;;10034356;29;20234;-81
2023/06/01 09:31:41;;;;;;;8.82;2.10;;;23.00;99.90;;;;;;10048848;29;20270;-79
2023/06/01 09:37:07;;;;;;;12.15;2.47;;;23.50;99.90;;;;;;10034836;29;20326;-80
2023/06/01 09:42:33;;;;;;;10.55;2.40;;;22.60;99.90;;;;;;10049922;29;20245;-79
2023/06/01 09:48:22;;;;;;;27.38;4.22;;;22.70;99.90;;;;;;10062761;29;20215;-79
2023/06/01 09:53:43;;;;;;;11.13;2.90;;;22.80;99.90;;;;;;10080588;29;20283;-80
2023/06/01 09:59:05;;;;;;;12.63;3.35;;;23.20;99.90;;;;;;10060719;29;20590;-80
2023/06/01 10:04:28;;;;;;;23.13;3.08;;;23.40;99.90;;;;;;10042484;29;20278;-80
2023/06/01 10:09:55;;;;;;;100.45;7.68;;;23.60;99.90;;;;;;10077854;29;20226;-81
2023/06/01 10:15:17;;;;;;;6.43;2.90;;;23.50;99.90;;;;;;10080537;29;20454;-82
2023/06/01 10:20:46;;;;;;;11.15;2.83;;;23.60;99.90;;;;;;10059315;29;20242;-82
2023/06/01 10:26:15;;;;;;;13.50;2.92;;;23.40;99.90;;;;;;10041327;29;20239;-80
2023/06/01 10:31:40;;;;;;;8.95;2.67;;;23.60;99.90;;;;;;10029990;29;20207;-83
2023/06/01 10:37:02;;;;;;;6.80;2.65;;;23.70;99.90;;;;;;10055393;29;20211;-79
2023/06/01 10:42:23;;;;;;;7.55;2.47;;;23.70;99.90;;;;;;10072527;29;20230;-81
2023/06/01 10:47:45;;;;;;;4.75;2.33;;;23.70;99.90;;;;;;10084342;29;20286;-80
2023/06/01 10:53:28;;;;;;;7.13;2.00;;;23.80;99.90;;;;;;10069398;29;20517;-79
2023/06/01 10:59:10;;;;;;;7.82;3.58;;;23.40;99.90;;;;;;10063506;29;20228;-80
2023/06/01 11:04:37;;;;;;;12.77;3.13;;;23.20;99.90;;;;;;10058203;29;20465;-83
2023/06/01 11:09:58;;;;;;;23.15;3.47;;;23.90;99.90;;;;;;10042470;29;20211;-79
2023/06/01 11:15:21;;;;;;;5.55;2.55;;;22.60;99.90;;;;;;10045565;29;20223;-80
2023/06/01 11:20:44;;;;;;;8.40;2.95;;;22.40;99.90;;;;;;10086064;29;20256;-79
2023/06/01 11:26:07;;;;;;;11.68;3.08;;;22.00;99.90;;;;;;10076834;29;20391;-79
2023/06/01 11:31:50;;;;;;;5.78;2.45;;;22.50;99.90;;;;;;10068888;29;20214;-80
2023/06/01 11:37:17;;;;;;;5.22;2.35;;;23.40;99.90;;;;;;10101745;29;20229;-80
2023/06/01 11:42:38;;;;;;;5.00;2.42;;;23.20;99.90;;;;;;10024140;29;20239;-80
2023/06/01 11:48:10;;;;;;;5.55;2.67;;;22.60;99.90;;;;;;10015715;29;20267;-81
2023/06/01 11:53:32;;;;;;;6.38;2.47;;;22.90;99.90;;;;;;10050424;29;20263;-80
2023/06/01 11:59:00;;;;;;;7.07;3.00;;;22.80;99.90;;;;;;10036712;29;20549;-80
2023/06/01 12:04:25;;;;;;;6.85;2.63;;;22.00;99.90;;;;;;10039849;29;20243;-79
2023/06/01 12:09:46;;;;;;;10.35;2.53;;;21.80;99.90;;;;;;10048420;29;20199;-80
2023/06/01 12:15:08;;;;;;;14.40;2.78;;;22.20;99.90;;;;;;10060709;29;20241;-79
2023/06/01 12:20:37;;;;;;;10.73;2.92;;;22.40;99.90;;;;;;10071841;29;20531;-80
2023/06/01 12:26:01;;;;;;;9.15;2.45;;;22.30;99.90;;;;;;10069425;29;20574;-79
2023/06/01 12:31:23;;;;;;;6.82;2.50;;;21.60;99.90;;;;;;10038005;29;20242;-79
2023/06/01 12:36:44;;;;;;;8.50;4.18;;;21.30;99.90;;;;;;10037095;29;20206;-79
2023/06/01 12:42:06;;;;;;;6.90;2.75;;;21.20;99.90;;;;;;10042609;29;20223;-80
2023/06/01 12:47:34;;;;;;;7.65;2.80;;;21.20;99.90;;;;;;10025024;29;20298;-80
2023/06/01 12:52:55;;;;;;;9.95;3.20;;;;;;;;;;10020197;29;20220;-81
2023/06/01 12:58:16;;;;;;;10.65;2.30;;;22.00;99.90;;;;;;10024943;29;20790;-81
2023/06/01 13:03:38;;;;;;;16.35;3.35;;;21.90;99.90;;;;;;10037725;29;20249;-79
2023/06/01 13:09:01;;;;;;;15.55;3.10;;;21.50;99.90;;;;;;10060176;29;20431;-80
2023/06/01 13:14:22;;;;;;;7.65;2.85;;;21.60;99.90;;;;;;10075391;29;20505;-81
2023/06/01 13:19:45;;;;;;;10.38;2.85;;;21.60;99.90;;;;;;10077719;29;20237;-85
2023/06/01 13:25:08;;;;;;;7.07;2.97;;;21.50;99.90;;;;;;10093447;29;20305;-85
2023/06/01 13:30:30;;;;;;;11.35;2.53;;;21.60;99.90;;;;;;10059966;29;20214;-80
2023/06/01 13:35:52;;;;;;;7.15;2.40;;;21.80;99.90;;;;;;10053122;29;20302;-81
2023/06/01 13:41:13;;;;;;;5.07;2.42;;;21.90;99.90;;;;;;10079757;29;20215;-83
2023/06/01 13:46:34;;;;;;;8.60;2.78;;;21.60;99.90;;;;;;10056958;29;20313;-81
2023/06/01 13:51:56;;;;;;;9.05;2.58;;;21.30;99.90;;;;;;10050557;29;20203;-80
2023/06/01 13:57:17;;;;;;;8.38;2.58;;;21.60;99.90;;;;;;10050272;29;20215;-82
2023/06/01 14:02:38;;;;;;;9.07;2.20;;;21.60;99.90;;;;;;10073807;29;20213;-82
2023/06/01 14:08:02;;;;;;;6.50;2.50;;;21.60;99.90;;;;;;10058672;29;20202;-82
2023/06/01 14:13:23;;;;;;;7.90;2.33;;;21.70;99.90;;;;;;10061471;29;20298;-82
2023/06/01 14:18:44;;;;;;;7.18;2.65;;;21.80;99.90;;;;;;10044289;29;20206;-83
2023/06/01 14:24:06;;;;;;;11.68;2.60;;;22.00;99.90;;;;;;10115465;29;20543;-82
2023/06/01 14:29:27;;;;;;;7.90;2.47;;;22.00;99.90;;;;;;10088746;29;20290;-82
2023/06/01 14:34:49;;;;;;;7.35;2.60;;;21.50;99.90;;;;;;10049321;29;20525;-83
2023/06/01 14:40:11;;;;;;;7.05;2.60;;;21.00;99.90;;;;;;10049783;29;20221;-81
2023/06/01 14:45:32;;;;;;;7.57;2.53;;;20.70;99.90;;;;;;10051965;29;20557;-82
2023/06/01 14:50:53;;;;;;;8.35;3.40;;;20.70;99.90;;;;;;10045216;29;20221;-82
2023/06/01 14:56:15;;;;;;;7.68;2.70;;;20.50;99.90;;;;;;10075918;29;20476;-82
2023/06/01 15:01:36;;;;;;;10.75;3.50;;;20.40;99.90;;;;;;10060829;29;20425;-82
2023/06/01 15:06:57;;;;;;;9.73;3.28;;;20.10;99.90;;;;;;10044835;29;20541;-83
2023/06/01 15:12:19;;;;;;;5.95;2.50;;;19.90;99.90;;;;;;10034554;29;20282;-80
2023/06/01 15:17:40;;;;;;;6.43;2.40;;;19.60;99.90;;;;;;10028000;29;20203;-80
2023/06/01 15:23:02;;;;;;;7.97;2.60;;;19.20;99.90;;;;;;10103418;29;20245;-80
2023/06/01 15:28:23;;;;;;;8.07;2.33;;;19.00;99.90;;;;;;10114835;29;20457;-80
2023/06/01 15:33:46;;;;;;;7.82;2.97;;;19.20;99.90;;;;;;10048106;29;20505;-81
2023/06/01 15:39:07;;;;;;;5.45;2.45;;;19.10;99.90;;;;;;10074034;29;20206;-80
2023/06/01 15:44:28;;;;;;;13.32;3.30;;;19.10;99.90;;;;;;10078369;29;20618;-80
2023/06/01 15:49:50;;;;;;;9.85;3.00;;;18.90;99.90;;;;;;10073913;29;20461;-80
2023/06/01 15:55:11;;;;;;;6.90;2.78;;;18.80;99.90;;;;;;10079287;29;20205;-80
2023/06/01 16:00:33;;;;;;;10.60;2.85;;;18.70;99.90;;;;;;10068123;29;20539;-81
2023/06/01 16:05:54;;;;;;;7.40;2.35;;;18.50;99.90;;;;;;10075610;29;20223;-79
2023/06/01 16:11:16;;;;;;;8.35;2.95;;;18.40;1.00;;;;;;10043222;29;20323;-80
2023/06/01 16:16:37;;;;;;;14.68;3.45;;;;;;;;;;10042807;29;20202;-80
2023/06/01 16:21:59;;;;;;;6.72;2.78;;;;;;;;;;10060076;29;20574;-80
2023/06/01 16:27:20;;;;;;;14.98;2.80;;;;;;;;;;10080285;29;20222;-80
2023/06/01 16:32:42;;;;;;;7.72;2.33;;;;;;;;;;10053335;29;20199;-81
2023/06/01 16:38:05;;;;;;;4.32;2.40;;;;;;;;;;10033068;29;20219;-78
2023/06/01 16:43:26;;;;;;;5.80;2.50;;;;;;;;;;10048557;29;20229;-78
2023/06/01 16:48:47;;;;;;;7.43;3.20;;;17.40;1.00;;;;;;10065855;29;20273;-78
2023/06/01 16:54:08;;;;;;;8.00;3.13;;;17.30;1.00;;;;;;10075670;29;20206;-80
2023/06/01 16:59:30;;;;;;;7.10;2.72;;;;;;;;;;10080150;29;20198;-80
2023/06/01 17:04:51;;;;;;;12.40;2.60;;;17.10;1.00;;;;;;10070069;29;20237;-80
2023/06/01 17:10:13;;;;;;;17.02;3.58;;;17.00;1.00;;;;;;10040782;29;20196;-79
2023/06/01 17:15:34;;;;;;;12.40;3.92;;;16.90;1.00;;;;;;10040810;29;20201;-80
2023/06/01 17:20:56;;;;;;;7.93;3.53;;;16.80;1.00;;;;;;10039776;29;20244;-81
2023/06/01 17:26:20;;;;;;;10.80;3.72;;;16.70;1.00;;;;;;10066010;29;20235;-80
2023/06/01 17:31:41;;;;;;;6.65;3.50;;;16.80;1.00;;;;;;10057883;29;20278;-80
2023/06/01 17:37:03;;;;;;;11.82;3.58;;;16.70;1.00;;;;;;10050649;29;20204;-80
2023/06/01 17:42:24;;;;;;;14.25;4.30;;;16.70;1.00;;;;;;10065016;29;20212;-80
2023/06/01 17:47:46;;;;;;;6.95;3.78;;;;;;;;;;10078780;29;20284;-80
2023/06/01 17:53:09;;;;;;;10.85;4.22;;;16.40;1.00;;;;;;10049100;29;20212;-79
2023/06/01 17:58:38;;;;;;;7.45;3.38;;;16.50;1.00;;;;;;10075974;29;20209;-79
2023/06/01 18:04:00;;;;;;;8.02;3.70;;;16.40;1.00;;;;;;10034203;29;20246;-80
2023/06/01 18:09:21;;;;;;;9.52;3.58;;;16.30;1.00;;;;;;10050855;29;20213;-79
2023/06/01 18:14:42;;;;;;;8.85;3.72;;;16.30;36.60;;;;;;10047164;29;20513;-81
2023/06/01 18:20:04;;;;;;;6.82;3.10;;;16.40;37.30;;;;;;10036432;29;20386;-80
2023/06/01 18:25:26;;;;;;;8.68;3.90;;;16.20;99.90;;;;;;10033595;29;20236;-78
2023/06/01 18:30:47;;;;;;;7.95;3.75;;;16.10;99.90;;;;;;10051349;29;20224;-80
2023/06/01 18:36:08;;;;;;;11.55;4.07;;;16.10;99.90;;;;;;10057899;29;20209;-80
2023/06/01 18:41:29;;;;;;;11.13;3.80;;;16.10;99.90;;;;;;10087759;29;20205;-80
2023/06/01 18:46:51;;;;;;;10.75;4.07;;;16.00;99.90;;;;;;10059913;29;20227;-80
2023/06/01 18:52:12;;;;;;;12.27;4.75;;;16.10;99.90;;;;;;10057773;29;20210;-79
2023/06/01 18:57:33;;;;;;;9.07;4.10;;;15.90;99.90;;;;;;10045539;29;20220;-80
2023/06/01 19:02:55;;;;;;;12.05;4.07;;;15.90;1.00;;;;;;10047873;29;20265;-80
2023/06/01 19:08:22;;;;;;;11.38;4.72;;;15.90;1.00;;;;;;10051851;29;20213;-79
2023/06/01 19:13:45;;;;;;;10.93;3.75;;;16.00;1.00;;;;;;10055568;29;20209;-80
2023/06/01 19:19:09;;;;;;;10.40;4.13;;;16.00;1.00;;;;;;10082810;29;20280;-79
2023/06/01 19:24:30;;;;;;;10.98;4.03;;;15.90;1.00;;;;;;10076038;29;20295;-80
2023/06/01 19:29:51;;;;;;;9.85;3.92;;;15.90;1.00;;;;;;10050738;29;20231;-80
2023/06/01 19:35:15;;;;;;;12.85;4.75;;;15.80;1.00;;;;;;10044796;29;20217;-80
2023/06/01 19:40:36;;;;;;;17.63;5.57;;;15.80;1.00;;;;;;10048451;29;20249;-80
2023/06/01 19:46:15;;;;;;;11.43;4.47;;;15.60;99.90;;;;;;10043839;29;20229;-79
2023/06/01 19:51:37;;;;;;;11.38;4.78;;;15.60;1.00;;;;;;10030372;29;20426;-79
2023/06/01 19:57:00;;;;;;;15.23;5.43;;;15.60;1.00;;;;;;10055120;29;20220;-80
2023/06/01 20:02:45;;;;;;;13.75;5.38;;;15.50;99.90;;;;;;10068052;29;20237;-80
2023/06/01 20:08:09;;;;;;;12.85;5.07;;;15.30;1.00;;;;;;10067882;29;20209;-80
2023/06/01 20:13:31;;;;;;;11.70;5.43;;;15.30;99.90;;;;;;10057074;29;20208;-79
2023/06/01 20:18:54;;;;;;;11.85;4.50;;;15.30;99.90;;;;;;10076881;29;20198;-79
2023/06/01 20:24:15;;;;;;;10.13;3.92;;;15.30;99.90;;;;;;10029393;29;20276;-80
2023/06/01 20:29:37;;;;;;;6.68;4.00;;;15.30;99.90;;;;;;10022926;29;20284;-79
2023/06/01 20:34:58;;;;;;;10.38;4.25;;;15.20;99.90;;;;;;10044336;29;20248;-79
2023/06/01 20:40:45;;;;;;;9.82;4.85;;;15.10;1.00;;;;;;10038485;29;20241;-79
2023/06/01 20:46:11;;;;;;;8.73;4.78;;;15.00;99.90;;;;;;10041037;29;20243;-79
2023/06/01 20:51:39;;;;;;;10.07;4.15;;;15.00;99.90;;;;;;10015710;29;20435;-79
2023/06/01 20:57:00;;;;;;;8.73;4.53;;;15.10;1.00;;;;;;10015475;29;20215;-79
2023/06/01 21:02:22;;;;;;;10.82;4.53;;;15.00;1.00;;;;;;10076680;29;20811;-78
2023/06/01 21:13:59;;;;;;;7.00;4.07;;;15.00;1.00;;;;;;10069874;29;20218;-80
2023/06/01 21:19:21;;;;;;;9.07;4.45;;;14.90;1.00;;;;;;10040511;29;20205;-80
2023/06/01 21:24:42;;;;;;;4.90;2.90;;;15.00;99.90;;;;;;10027372;29;20234;-80
2023/06/01 21:36:28;;;;;;;2.42;1.58;;;;;;;;;;10042277;29;20185;-80
2023/06/01 21:41:49;;;;;;;2.55;1.60;;;14.30;1.00;;;;;;10061194;29;20557;-80
2023/06/01 21:47:14;;;;;;;2.58;1.40;;;14.10;1.00;;;;;;10048037;29;20251;-80
2023/06/01 21:52:36;;;;;;;2.15;1.15;;;13.90;99.90;;;;;;10077889;29;20202;-79
2023/06/01 21:57:57;;;;;;;3.75;1.48;;;13.80;1.00;;;;;;10078093;29;20532;-79
2023/06/01 22:03:20;;;;;;;8.70;1.85;;;13.50;99.90;;;;;;10061796;29;20570;-81
2023/06/01 22:08:41;;;;;;;5.68;1.38;;;13.10;99.90;;;;;;10064815;29;20210;-80
2023/06/01 22:14:02;;;;;;;10.57;2.40;;;12.80;1.00;;;;;;10058241;29;20220;-80
2023/06/01 22:19:24;;;;;;;6.65;2.10;;;12.60;1.00;;;;;;10040248;29;20279;-80
2023/06/01 22:24:45;;;;;;;6.63;1.70;;;12.60;99.90;;;;;;10026297;29;20265;-80
2023/06/01 22:30:07;;;;;;;7.93;2.20;;;12.60;99.90;;;;;;10050260;29;20443;-80
2023/06/01 22:35:29;;;;;;;6.63;1.95;;;12.70;1.00;;;;;;10039050;29;20209;-80
2023/06/01 22:40:50;;;;;;;7.43;1.95;;;12.50;99.90;;;;;;10042215;29;20233;-79
2023/06/01 22:46:11;;;;;;;2.58;1.25;;;12.50;1.60;;;;;;10053987;29;20311;-79
2023/06/01 22:51:34;;;;;;;3.63;1.42;;;12.60;99.90;;;;;;10045188;29;20255;-79
2023/06/01 22:56:55;;;;;;;5.53;1.40;;;12.60;99.90;;;;;;10044679;29;20208;-80
2023/06/01 23:02:18;;;;;;;3.90;1.77;;;12.80;99.90;;;;;;10047620;29;20213;-79
2023/06/01 23:07:39;;;;;;;3.67;1.63;;;12.80;98.40;;;;;;10044917;29;20240;-79
2023/06/01 23:13:04;;;;;;;4.32;1.50;;;12.70;96.60;;;;;;10047146;29;20221;-79
2023/06/01 23:18:28;;;;;;;3.97;1.67;;;12.50;97.40;;;;;;10045012;29;20282;-79
2023/06/01 23:23:50;;;;;;;4.22;1.60;;;12.40;98.70;;;;;;10045081;29;20238;-80
2023/06/01 23:29:11;;;;;;;4.60;1.77;;;12.10;98.60;;;;;;10022211;29;20267;-79
2023/06/01 23:34:33;;;;;;;6.50;1.90;;;11.90;96.30;;;;;;10069351;29;20209;-80
2023/06/01 23:39:54;;;;;;;4.75;1.63;;;11.80;96.80;;;;;;10083085;29;20201;-79
2023/06/01 23:45:16;;;;;;;4.78;1.55;;;11.70;97.10;;;;;;10052258;29;20242;-80
2023/06/01 23:50:38;;;;;;;3.47;1.73;;;11.60;98.60;;;;;;10042599;29;20206;-80
2023/06/01 23:55:59;;;;;;;6.30;1.50;;;11.50;97.90;;;;;;10076504;29;20204;-78
